Time;durP1;ratioP1;P1;durP2;ratioP2;P2;SDS_P1;SDS_P2;PMS_P1;PMS_P2;Temp;Humidity;BMP_temperature;BMP_pressure;BME280_temperature;BME280_humidity;BME280_pressure;Samples;Min_cycle;Max_cycle;Signal;HPM_P1;HPM_P2
2021/12/02 00:02:22;;;;;;;9.20;1.65;;;;;;;;;;5063793;28;20052;-90
2021/12/02 00:04:49;;;;;;;15.73;3.20;;;;;;;;;;5097074;28;20048;-92
2021/12/02 00:07:15;;;;;;;10.18;2.25;;;;;;;;;;5064166;28;20040;-90
2021/12/02 00:09:41;;;;;;;3.22;1.63;;;;;;;;;;5064432;28;20062;-90
2021/12/02 00:12:07;;;;;;;8.52;1.92;;;;;;;;;;5063670;28;20522;-90
2021/12/02 00:14:40;;;;;;;10.20;2.22;;;;;;;;;;5096954;28;20070;-90
2021/12/02 00:17:12;;;;;;;9.27;1.65;;;;;;;;;;5063374;28;20083;-90
2021/12/02 00:22:28;;;;;;;9.57;1.98;;;;;;;;;;5097296;28;20447;-90
2021/12/02 00:25:02;;;;;;;9.75;2.13;;;;;;;;;;5064226;28;20040;-89
2021/12/02 00:27:29;;;;;;;4.40;2.38;;;;;;;;;;5063946;28;20147;-90
2021/12/02 00:29:57;;;;;;;6.93;1.92;;;;;;;;;;5064000;28;20048;-89
2021/12/02 00:32:26;;;;;;;7.57;2.03;;;;;;;;;;5063599;28;20055;-90
2021/12/02 00:34:52;;;;;;;5.90;1.35;;;;;;;;;;5063712;28;20055;-90
2021/12/02 00:37:18;;;;;;;3.55;1.13;;;;;;;;;;5096872;28;20051;-91
2021/12/02 00:39:44;;;;;;;5.90;1.63;;;;;;;;;;5062651;28;20052;-89
2021/12/02 00:42:10;;;;;;;1.10;0.93;;;;;;;;;;5096652;28;20056;-90
2021/12/02 00:44:37;;;;;;;5.72;1.02;;;;;;;;;;5062420;28;20048;-89
2021/12/02 00:47:03;;;;;;;3.72;0.85;;;;;;;;;;5062654;28;20062;-89
2021/12/02 00:49:30;;;;;;;8.45;0.90;;;;;;;;;;5062737;28;20140;-90
2021/12/02 00:51:58;;;;;;;11.27;2.08;;;;;;;;;;5096038;28;20063;-91
2021/12/02 00:54:25;;;;;;;3.22;0.93;;;;;;;;;;5096116;28;20087;-90
2021/12/02 00:56:52;;;;;;;2.17;0.77;;;;;;;;;;5062568;28;20056;-90
2021/12/02 00:59:18;;;;;;;1.77;0.52;;;;;;;;;;5063496;28;20044;-90
2021/12/02 01:01:46;;;;;;;2.55;0.90;;;;;;;;;;5062140;28;20088;-90
2021/12/02 01:04:15;;;;;;;3.17;1.00;;;;;;;;;;5061962;28;20457;-90
2021/12/02 01:06:41;;;;;;;11.27;1.13;;;;;;;;;;5063852;28;20054;-90
2021/12/02 01:09:08;;;;;;;3.13;0.88;;;;;;;;;;5096392;28;20052;-89
2021/12/02 01:11:35;;;;;;;1.80;1.05;;;;;;;;;;5062311;28;20533;-90
2021/12/02 01:14:01;;;;;;;2.10;0.80;;;;;;;;;;5063354;28;20044;-88
2021/12/02 01:16:28;;;;;;;1.48;0.77;;;;;;;;;;5063286;28;20190;-89
2021/12/02 01:18:54;;;;;;;2.10;1.08;;;;;;;;;;5062361;28;20051;-91
2021/12/02 01:21:22;;;;;;;1.83;0.90;;;;;;;;;;5095818;28;20052;-90
2021/12/02 01:23:50;;;;;;;3.08;1.15;;;;;;;;;;5095751;28;20048;-90
2021/12/02 01:26:17;;;;;;;6.88;0.90;;;;;;;;;;5061873;28;20105;-90
2021/12/02 01:28:43;;;;;;;3.22;1.15;;;;;;;;;;5062403;28;20048;-90
2021/12/02 01:31:11;;;;;;;4.18;1.00;;;;;;;;;;5063573;28;20086;-90
2021/12/02 01:33:38;;;;;;;4.63;1.40;;;;;;;;;;5062541;28;20125;-90
2021/12/02 01:36:05;;;;;;;4.43;1.30;;;;;;;;;;5095482;28;20113;-90
2021/12/02 01:38:32;;;;;;;2.92;1.15;;;;;;;;;;5054771;28;20044;-91
2021/12/02 01:40:59;;;;;;;6.40;1.75;;;;;;;;;;5074949;28;20048;-91
2021/12/02 01:43:43;;;;;;;9.43;1.60;;;;;;;;;;5041824;28;20088;-90
2021/12/02 01:46:09;;;;;;;9.00;1.65;;;;;;;;;;5042136;28;20059;-90
2021/12/02 01:48:38;;;;;;;7.78;1.70;;;;;;;;;;5041606;28;20049;-90
2021/12/02 01:51:13;;;;;;;5.93;1.63;;;;;;;;;;5041556;28;20052;-91
2021/12/02 01:53:40;;;;;;;5.60;1.45;;;;;;;;;;5041559;28;20045;-90
2021/12/02 01:56:14;;;;;;;6.07;1.30;;;;;;;;;;5040783;28;20048;-91
2021/12/02 01:58:47;;;;;;;9.25;1.30;;;;;;;;;;5040844;28;20045;-90
2021/12/02 02:01:24;;;;;;;9.60;1.42;;;;;;;;;;5042872;28;20067;-90
2021/12/02 02:03:51;;;;;;;13.55;3.35;;;;;;;;;;5041685;28;20135;-90
2021/12/02 02:06:27;;;;;;;3.15;1.00;;;;;;;;;;5041283;28;20056;-90
2021/12/02 02:08:55;;;;;;;4.28;1.33;;;;;;;;;;5074918;28;20052;-90
2021/12/02 02:11:21;;;;;;;4.25;1.30;;;;;;;;;;5041182;28;20056;-90
2021/12/02 02:13:47;;;;;;;2.45;1.70;;;;;;;;;;5040789;28;20455;-90
2021/12/02 02:16:14;;;;;;;2.83;1.10;;;;;;;;;;5040506;28;20113;-90
2021/12/02 02:18:40;;;;;;;4.93;1.50;;;;;;;;;;5041256;28;20046;-90
2021/12/02 02:21:13;;;;;;;3.65;1.05;;;;;;;;;;5040944;28;20052;-90
2021/12/02 02:23:47;;;;;;;2.70;1.45;;;;;;;;;;5041204;28;20508;-90
2021/12/02 02:26:14;;;;;;;2.97;1.17;;;;;;;;;;5074440;28;20147;-90
2021/12/02 02:28:40;;;;;;;3.78;1.02;;;;;;;;;;5042390;28;20045;-90
2021/12/02 02:31:07;;;;;;;4.22;0.90;;;;;;;;;;5042095;28;20397;-90
2021/12/02 02:33:37;;;;;;;4.00;1.50;;;;;;;;;;5041703;28;20045;-91
2021/12/02 02:36:07;;;;;;;4.53;1.65;;;;;;;;;;5042203;28;20044;-94
2021/12/02 02:38:34;;;;;;;2.92;0.80;;;;;;;;;;5080067;28;20541;-93
2021/12/02 02:41:02;;;;;;;2.30;1.20;;;;;;;;;;5058525;28;20063;-94
2021/12/02 02:43:31;;;;;;;3.30;1.17;;;;;;;;;;5059284;28;20052;-93
2021/12/02 02:45:57;;;;;;;5.68;1.25;;;;;;;;;;5058197;28;20052;-90
2021/12/02 02:48:23;;;;;;;2.97;1.23;;;;;;;;;;5057986;28;20053;-91
2021/12/02 02:50:49;;;;;;;0.60;0.60;;;;;;;;;;5074609;28;20052;-94
2021/12/02 02:53:19;;;;;;;0.60;0.60;;;;;;;;;;5058573;28;20131;-90
2021/12/02 02:56:08;;;;;;;0.70;0.70;;;;;;;;;;5057978;28;20044;-90
2021/12/02 03:01:15;;;;;;;1.05;0.93;;;;;;;;;;5091838;28;20048;-90
2021/12/02 03:03:53;;;;;;;0.60;0.60;;;;;;;;;;5091709;28;20049;-94
2021/12/02 03:06:33;;;;;;;3.00;0.60;;;;;;;;;;5058080;28;20056;-92
2021/12/02 03:09:24;;;;;;;2.30;1.25;;;;;;;;;;5058573;28;20060;-94
2021/12/02 03:11:54;;;;;;;0.60;0.60;;;;;;;;;;5057352;28;20053;-92
2021/12/02 03:14:28;;;;;;;5.57;0.70;;;;;;;;;;5058766;28;20045;-92
2021/12/02 03:16:55;;;;;;;0.73;0.50;;;;;;;;;;5057304;28;20145;-92
2021/12/02 03:19:28;;;;;;;1.48;0.60;;;;;;;;;;5059118;28;20053;-91
2021/12/02 03:21:58;;;;;;;2.13;0.70;;;;;;;;;;5059025;28;20190;-92
2021/12/02 03:24:24;;;;;;;1.80;0.65;;;;;;;;;;5058913;28;20055;-89
2021/12/02 03:26:50;;;;;;;4.25;0.80;;;;;;;;;;5058308;28;20135;-92
2021/12/02 03:29:17;;;;;;;1.52;1.35;;;;;;;;;;5057776;28;20048;-89
2021/12/02 03:31:43;;;;;;;0.63;0.60;;;;;;;;;;5074867;28;20095;-89
2021/12/02 03:34:10;;;;;;;1.63;0.80;;;;;;;;;;5058138;28;20098;-89
2021/12/02 03:36:36;;;;;;;1.73;1.15;;;;;;;;;;5056487;28;20110;-90
2021/12/02 03:39:04;;;;;;;1.15;0.70;;;;;;;;;;5059570;28;20542;-91
2021/12/02 03:41:30;;;;;;;1.00;0.70;;;;;;;;;;5061149;28;20393;-90
2021/12/02 03:43:56;;;;;;;1.38;0.65;;;;;;;;;;5060069;28;20073;-89
2021/12/02 03:46:23;;;;;;;4.93;0.68;;;;;;;;;;5060041;28;20465;-90
2021/12/02 03:48:50;;;;;;;1.55;1.08;;;;;;;;;;5061024;28;20048;-90
2021/12/02 03:51:17;;;;;;;1.42;0.60;;;;;;;;;;5059622;28;20110;-89
2021/12/02 03:53:44;;;;;;;0.82;0.50;;;;;;;;;;5059608;28;20052;-89
2021/12/02 03:56:10;;;;;;;3.15;0.70;;;;;;;;;;5059537;28;20051;-90
2021/12/02 03:58:37;;;;;;;1.35;0.75;;;;;;;;;;5059338;28;20131;-89
2021/12/02 04:01:04;;;;;;;4.22;0.63;;;;;;;;;;5059817;28;20484;-90
2021/12/02 04:03:30;;;;;;;1.40;1.13;;;;;;;;;;5060160;28;20048;-94
2021/12/02 04:05:56;;;;;;;1.02;0.80;;;;;;;;;;5094374;28;20501;-93
2021/12/02 04:08:29;;;;;;;4.28;0.80;;;;;;;;;;5061017;28;20036;-93
2021/12/02 04:11:10;;;;;;;1.60;0.80;;;;;;;;;;5061190;28;20435;-93
2021/12/02 04:13:40;;;;;;;2.50;0.70;;;;;;;;;;5061481;28;20488;-93
2021/12/02 04:16:14;;;;;;;0.73;0.45;;;;;;;;;;5061457;28;20048;-94
2021/12/02 04:18:40;;;;;;;0.63;0.60;;;;;;;;;;5062521;28;20052;-95
2021/12/02 04:21:06;;;;;;;1.33;0.60;;;;;;;;;;5061548;28;20416;-94
2021/12/02 04:23:32;;;;;;;3.40;1.75;;;;;;;;;;5061665;28;20507;-93
2021/12/02 04:25:58;;;;;;;2.28;0.82;;;;;;;;;;5061725;28;20056;-94
2021/12/02 04:28:24;;;;;;;3.67;1.10;;;;;;;;;;5061687;28;20056;-94
2021/12/02 04:30:50;;;;;;;4.63;1.98;;;;;;;;;;5064353;28;20110;-94
2021/12/02 04:33:16;;;;;;;1.10;0.82;;;;;;;;;;5065102;28;20052;-94
2021/12/02 04:35:42;;;;;;;7.93;0.82;;;;;;;;;;5064806;28;20083;-94
2021/12/02 04:38:08;;;;;;;3.28;1.23;;;;;;;;;;5097391;28;20177;-95
2021/12/02 04:40:40;;;;;;;1.23;1.13;;;;;;;;;;5065265;28;20055;-94
2021/12/02 04:43:06;;;;;;;2.45;0.50;;;;;;;;;;5065095;28;20044;-94
2021/12/02 04:45:32;;;;;;;0.70;0.63;;;;;;;;;;5064217;28;20048;-94
2021/12/02 04:47:58;;;;;;;0.50;0.50;;;;;;;;;;5064687;28;20477;-94
2021/12/02 04:50:25;;;;;;;1.98;0.90;;;;;;;;;;5062014;28;20120;-89
2021/12/02 04:52:52;;;;;;;0.95;0.60;;;;;;;;;;5062759;28;20487;-90
2021/12/02 04:55:19;;;;;;;1.23;0.50;;;;;;;;;;5096144;28;20063;-91
2021/12/02 04:57:45;;;;;;;0.50;0.50;;;;;;;;;;5062227;28;20570;-89
2021/12/02 05:00:11;;;;;;;5.15;0.80;;;;;;;;;;5062306;28;20109;-90
2021/12/02 05:02:39;;;;;;;1.55;0.60;;;;;;;;;;5062162;28;20048;-89
2021/12/02 05:05:06;;;;;;;0.50;0.50;;;;;;;;;;5062359;28;20488;-90
2021/12/02 05:07:32;;;;;;;2.45;0.55;;;;;;;;;;5063415;28;20063;-90
2021/12/02 05:09:58;;;;;;;0.52;0.52;;;;;;;;;;5061564;28;20087;-90
2021/12/02 05:12:24;;;;;;;3.47;2.05;;;;;;;;;;5062557;28;20098;-90
2021/12/02 05:14:50;;;;;;;7.30;1.38;;;;;;;;;;5062423;28;20048;-90
2021/12/02 05:17:16;;;;;;;1.63;0.65;;;;;;;;;;5062152;28;20055;-90
2021/12/02 05:19:42;;;;;;;0.77;0.57;;;;;;;;;;5061965;28;20044;-90
2021/12/02 05:22:09;;;;;;;0.68;0.60;;;;;;;;;;5062070;28;20488;-90
2021/12/02 05:24:35;;;;;;;1.42;0.55;;;;;;;;;;5062510;28;20067;-92
2021/12/02 05:27:01;;;;;;;1.45;0.70;;;;;;;;;;5064229;28;20138;-90
2021/12/02 05:29:27;;;;;;;4.07;0.50;;;;;;;;;;5061529;28;20044;-89
2021/12/02 05:31:54;;;;;;;2.08;0.70;;;;;;;;;;5096358;28;20056;-89
2021/12/02 05:34:20;;;;;;;0.85;0.80;;;;;;;;;;5095429;28;20044;-88
2021/12/02 05:36:46;;;;;;;1.00;0.60;;;;;;;;;;5061676;28;20046;-92
2021/12/02 05:39:12;;;;;;;4.68;1.20;;;;;;;;;;5062704;28;20050;-94
2021/12/02 05:41:38;;;;;;;0.70;0.50;;;;;;;;;;5078532;28;20051;-92
2021/12/02 05:44:04;;;;;;;1.13;0.43;;;;;;;;;;5096000;28;20054;-93
2021/12/02 05:46:30;;;;;;;1.23;0.60;;;;;;;;;;5062532;28;20060;-93
2021/12/02 05:48:57;;;;;;;0.50;0.50;;;;;;;;;;5096040;28;20052;-93
2021/12/02 05:51:23;;;;;;;1.30;0.85;;;;;;;;;;5096061;28;20110;-91
2021/12/02 05:53:49;;;;;;;2.15;0.70;;;;;;;;;;5096759;28;20043;-90
2021/12/02 05:56:15;;;;;;;0.68;0.65;;;;;;;;;;5096660;28;20063;-90
2021/12/02 05:58:41;;;;;;;2.42;0.77;;;;;;;;;;5061715;28;20055;-90
2021/12/02 06:01:07;;;;;;;0.50;0.50;;;;;;;;;;5061119;28;20101;-90
2021/12/02 06:03:36;;;;;;;0.85;0.70;;;;;;;;;;5062377;28;20106;-90
2021/12/02 06:06:03;;;;;;;0.70;0.70;;;;;;;;;;5060601;28;20051;-89
2021/12/02 06:08:29;;;;;;;3.28;0.77;;;;;;;;;;5095336;28;20455;-90
2021/12/02 06:10:55;;;;;;;3.72;0.63;;;;;;;;;;5060648;28;20069;-89
2021/12/02 06:13:21;;;;;;;2.15;0.75;;;;;;;;;;5060895;28;20056;-90
2021/12/02 06:15:47;;;;;;;0.68;0.68;;;;;;;;;;5061087;28;20143;-90
2021/12/02 06:18:13;;;;;;;1.80;0.73;;;;;;;;;;5061258;28;20087;-90
2021/12/02 06:20:39;;;;;;;7.50;1.25;;;;;;;;;;5095406;28;20071;-90
2021/12/02 06:23:05;;;;;;;0.75;0.75;;;;;;;;;;5060604;28;20102;-89
2021/12/02 06:27:57;;;;;;;0.60;0.60;;;;;;;;;;5095719;28;20452;-89
2021/12/02 06:30:25;;;;;;;2.70;0.70;;;;;;;;;;5062129;28;20051;-89
2021/12/02 06:32:51;;;;;;;1.75;0.60;;;;;;;;;;5061537;28;20508;-89
2021/12/02 06:35:17;;;;;;;1.23;0.60;;;;;;;;;;5061612;28;20048;-91
2021/12/02 06:37:46;;;;;;;1.55;0.60;;;;;;;;;;5061158;28;20447;-91
2021/12/02 06:40:12;;;;;;;1.85;0.63;;;;;;;;;;5061075;28;20059;-91
2021/12/02 06:42:39;;;;;;;3.65;1.10;;;;;;;;;;5077259;28;20467;-89
2021/12/02 06:45:06;;;;;;;0.88;0.60;;;;;;;;;;5060020;28;20142;-89
2021/12/02 06:47:37;;;;;;;3.70;0.93;;;;;;;;;;5060519;28;20110;-89
2021/12/02 06:50:05;;;;;;;5.97;0.70;;;;;;;;;;5061428;28;20369;-89
2021/12/02 06:52:31;;;;;;;3.50;0.60;;;;;;;;;;5060597;28;20201;-93
2021/12/02 06:54:58;;;;;;;1.60;0.88;;;;;;;;;;5062127;28;20087;-91
2021/12/02 06:57:24;;;;;;;3.20;0.52;;;;;;;;;;5062338;28;20060;-92
2021/12/02 06:59:50;;;;;;;0.85;0.70;;;;;;;;;;5061297;28;20075;-92
2021/12/02 07:02:18;;;;;;;2.03;0.85;;;;;;;;;;5094754;28;20107;-92
2021/12/02 07:04:44;;;;;;;2.80;0.93;;;;;;;;;;5061277;28;20048;-91
2021/12/02 07:07:11;;;;;;;1.00;0.77;;;;;;;;;;5060508;28;20048;-93
2021/12/02 07:09:37;;;;;;;0.90;0.80;;;;;;;;;;5062322;28;20048;-93
2021/12/02 07:12:03;;;;;;;0.85;0.60;;;;;;;;;;5061140;28;20060;-93
2021/12/02 07:14:29;;;;;;;3.20;0.93;;;;;;;;;;5061073;28;20140;-93
2021/12/02 07:16:57;;;;;;;5.72;0.88;;;;;;;;;;5061936;28;20048;-92
2021/12/02 07:19:24;;;;;;;2.20;0.82;;;;;;;;;;5061528;28;20040;-93
2021/12/02 07:21:50;;;;;;;1.15;0.73;;;;;;;;;;5094536;28;20048;-93
2021/12/02 07:24:16;;;;;;;2.53;1.00;;;;;;;;;;5061305;28;20048;-91
2021/12/02 07:26:43;;;;;;;3.25;1.20;;;;;;;;;;5059936;28;20044;-93
2021/12/02 07:29:10;;;;;;;2.17;1.50;;;;;;;;;;5060151;28;20095;-89
2021/12/02 07:31:38;;;;;;;3.83;1.67;;;;;;;;;;5060411;28;20059;-91
2021/12/02 07:34:04;;;;;;;2.05;1.65;;;;;;;;;;5061542;28;20150;-91
2021/12/02 07:36:31;;;;;;;1.75;1.33;;;;;;;;;;5060177;28;20040;-91
2021/12/02 07:38:57;;;;;;;3.13;2.33;;;;;;;;;;5093508;28;20083;-92
2021/12/02 07:41:23;;;;;;;2.97;2.58;;;;;;;;;;5061729;28;20052;-92
2021/12/02 07:43:49;;;;;;;3.35;2.13;;;;;;;;;;5060340;28;20056;-91
2021/12/02 07:46:15;;;;;;;3.10;2.08;;;;;;;;;;5060813;28;20063;-93
2021/12/02 07:48:41;;;;;;;4.47;1.60;;;;;;;;;;5060578;28;20048;-93
2021/12/02 07:51:09;;;;;;;2.83;1.30;;;;;;;;;;5061426;28;20052;-93
2021/12/02 07:53:36;;;;;;;2.03;1.20;;;;;;;;;;5061137;28;20044;-93
2021/12/02 07:56:04;;;;;;;2.17;1.33;;;;;;;;;;5060472;28;20052;-92
2021/12/02 07:58:30;;;;;;;1.55;1.08;;;;;;;;;;5060915;28;20131;-93
2021/12/02 08:01:00;;;;;;;2.67;1.10;;;;;;;;;;5060353;28;20134;-93
2021/12/02 08:03:27;;;;;;;3.53;1.20;;;;;;;;;;5060873;28;20556;-92
2021/12/02 08:05:54;;;;;;;3.72;1.33;;;;;;;;;;5065649;28;20058;-94
2021/12/02 08:08:20;;;;;;;6.70;1.42;;;;;;;;;;5097439;28;20411;-91
2021/12/02 08:10:46;;;;;;;3.70;1.17;;;;;;;;;;5096704;28;20048;-90
2021/12/02 08:13:15;;;;;;;3.03;1.52;;;;;;;;;;5063570;28;20044;-90
2021/12/02 08:15:42;;;;;;;3.25;1.05;;;;;;;;;;5063667;28;20048;-89
2021/12/02 08:18:09;;;;;;;4.75;1.30;;;;;;;;;;5064905;28;20048;-90
2021/12/02 08:20:36;;;;;;;3.40;1.60;;;;;;;;;;5065539;28;20052;-89
2021/12/02 08:23:02;;;;;;;1.52;1.17;;;;;;;;;;5067476;28;20048;-89
2021/12/02 08:25:29;;;;;;;2.55;1.10;;;;;;;;;;5064316;28;20485;-89
2021/12/02 08:27:59;;;;;;;3.78;1.67;;;;;;;;;;5064574;28;20044;-90
2021/12/02 08:30:26;;;;;;;2.20;1.50;;;;;;;;;;5064765;28;20091;-90
2021/12/02 08:32:53;;;;;;;2.92;1.42;;;;;;;;;;5064468;28;20055;-91
2021/12/02 08:35:19;;;;;;;1.48;1.38;;;;;;;;;;5064236;28;20078;-92
2021/12/02 08:37:49;;;;;;;6.82;1.30;;;;;;;;;;5098124;28;20052;-93
2021/12/02 08:40:17;;;;;;;2.88;1.20;;;;;;;;;;5064041;28;20135;-93
2021/12/02 08:42:43;;;;;;;1.10;1.00;;;;;;;;;;5064517;28;20048;-93
2021/12/02 08:45:10;;;;;;;1.80;1.30;;;;;;;;;;5064417;28;20052;-91
2021/12/02 08:47:43;;;;;;;1.48;1.33;;;;;;;;;;5063296;28;20040;-91
2021/12/02 08:50:09;;;;;;;3.03;1.08;;;;;;;;;;5096404;28;20094;-89
2021/12/02 08:52:35;;;;;;;3.63;1.20;;;;;;;;;;5062774;28;20142;-89
2021/12/02 08:55:01;;;;;;;3.30;1.20;;;;;;;;;;5062832;28;20052;-89
2021/12/02 08:57:27;;;;;;;1.70;0.90;;;;;;;;;;5096440;28;20055;-89
2021/12/02 08:59:53;;;;;;;2.40;1.25;;;;;;;;;;5063576;28;20052;-90
2021/12/02 09:02:20;;;;;;;2.03;1.20;;;;;;;;;;5064007;28;20055;-89
2021/12/02 09:04:46;;;;;;;1.15;1.00;;;;;;;;;;5063910;28;20488;-89
2021/12/02 09:07:12;;;;;;;1.20;0.73;;;;;;;;;;5098085;28;20052;-89
2021/12/02 09:09:38;;;;;;;0.85;0.60;;;;;;;;;;5063857;28;20055;-89
2021/12/02 09:12:05;;;;;;;5.03;0.77;;;;;;;;;;5097164;28;20109;-89
2021/12/02 09:14:31;;;;;;;4.97;0.90;;;;;;;;;;5096058;28;20040;-89
2021/12/02 09:16:57;;;;;;;1.02;0.77;;;;;;;;;;5062016;28;20400;-90
2021/12/02 09:19:23;;;;;;;0.60;0.60;;;;;;;;;;5096200;28;20439;-89
2021/12/02 09:21:49;;;;;;;5.15;1.17;;;;;;;;;;5062379;28;20385;-89
2021/12/02 09:24:19;;;;;;;3.28;1.33;;;;;;;;;;5096291;28;20051;-89
2021/12/02 09:26:46;;;;;;;1.88;1.77;;;;;;;;;;5063012;28;20036;-90
2021/12/02 09:29:12;;;;;;;2.55;1.10;;;;;;;;;;5061936;28;20044;-90
2021/12/02 09:31:38;;;;;;;1.98;1.10;;;;;;;;;;5062176;28;20504;-89
2021/12/02 09:34:04;;;;;;;2.08;0.93;;;;;;;;;;5095621;28;20048;-89
2021/12/02 09:36:32;;;;;;;3.17;1.20;;;;;;;;;;5062100;28;20048;-89
2021/12/02 09:38:58;;;;;;;1.45;0.93;;;;;;;;;;5061175;28;20048;-89
2021/12/02 09:41:24;;;;;;;4.22;1.05;;;;;;;;;;5061323;28;20059;-90
2021/12/02 09:43:50;;;;;;;4.63;1.20;;;;;;;;;;5095602;28;20458;-89
2021/12/02 09:46:17;;;;;;;2.38;1.38;;;;;;;;;;5061462;28;20083;-89
2021/12/02 09:48:44;;;;;;;4.07;1.10;;;;;;;;;;5061633;28;20055;-89
2021/12/02 09:51:13;;;;;;;5.07;1.40;;;;;;;;;;5062258;28;20094;-89
2021/12/02 09:56:19;;;;;;;1.40;0.65;;;;;;;;;;5095568;28;20087;-89
2021/12/02 09:58:46;;;;;;;0.93;0.70;;;;;;;;;;5095306;28;20381;-89
2021/12/02 10:01:14;;;;;;;15.18;1.90;;;;;;;;;;5063380;28;20048;-89
2021/12/02 10:03:44;;;;;;;1.13;0.70;;;;;;;;;;5063721;28;20048;-89
2021/12/02 10:06:17;;;;;;;2.40;0.70;;;;;;;;;;5095404;28;20097;-89
2021/12/02 10:08:53;;;;;;;0.60;0.60;;;;;;;;;;5061928;28;20120;-89
2021/12/02 10:11:45;;;;;;;1.27;0.65;;;;;;;;;;5060977;28;20051;-89
2021/12/02 10:14:17;;;;;;;0.50;0.50;;;;;;;;;;5094729;28;20127;-89
2021/12/02 10:16:45;;;;;;;6.53;0.55;;;;;;;;;;5061557;28;20051;-89
2021/12/02 10:19:23;;;;;;;3.85;1.52;;;;;;;;;;5045169;28;20040;-89
2021/12/02 10:21:54;;;;;;;0.60;0.60;;;;;;;;;;5094471;28;20596;-89
2021/12/02 10:24:23;;;;;;;1.33;0.85;;;;;;;;;;5094653;28;20135;-89
2021/12/02 10:26:52;;;;;;;0.88;0.88;;;;;;;;;;5060517;28;20060;-89
2021/12/02 10:29:19;;;;;;;2.20;1.23;;;;;;;;;;5094253;28;20127;-89
2021/12/02 10:31:47;;;;;;;0.95;0.80;;;;;;;;;;5060783;28;20052;-89
2021/12/02 10:34:14;;;;;;;0.63;0.60;;;;;;;;;;5060215;28;20101;-90
2021/12/02 10:36:44;;;;;;;1.52;0.85;;;;;;;;;;5061716;28;20059;-89
2021/12/02 10:39:17;;;;;;;1.48;0.95;;;;;;;;;;5061950;28;20040;-90
2021/12/02 10:41:44;;;;;;;2.40;1.05;;;;;;;;;;5060245;28;20070;-89
2021/12/02 10:44:10;;;;;;;2.78;0.95;;;;;;;;;;5060987;28;20055;-89
2021/12/02 10:46:38;;;;;;;1.50;1.17;;;;;;;;;;5094810;28;20090;-89
2021/12/02 10:49:05;;;;;;;1.80;1.00;;;;;;;;;;5094103;28;20047;-89
2021/12/02 10:51:34;;;;;;;0.93;0.63;;;;;;;;;;5060295;28;20044;-89
2021/12/02 10:54:01;;;;;;;1.25;0.70;;;;;;;;;;5059987;28;20051;-89
2021/12/02 10:56:31;;;;;;;1.42;1.25;;;;;;;;;;5060203;28;20504;-89
2021/12/02 10:58:57;;;;;;;1.17;0.90;;;;;;;;;;5060206;28;20197;-88
2021/12/02 11:01:39;;;;;;;1.05;1.02;;;;;;;;;;5060505;28;20050;-89
2021/12/02 11:04:06;;;;;;;1.40;1.27;;;;;;;;;;5060638;28;20052;-89
2021/12/02 11:06:42;;;;;;;6.07;1.60;;;;;;;;;;5094143;28;20080;-89
2021/12/02 11:09:43;;;;;;;1.15;0.90;;;;;;;;;;5060383;28;20052;-89
2021/12/02 11:12:09;;;;;;;2.90;1.40;;;;;;;;;;4976507;28;20082;-88
2021/12/02 11:14:43;;;;;;;5.05;2.30;;;;;;;;;;4993442;28;20605;-89
2021/12/02 11:17:14;;;;;;;2.40;1.48;;;;;;;;;;4977443;28;20065;-89
2021/12/02 11:19:43;;;;;;;2.72;0.90;;;;;;;;;;4994024;28;20557;-89
2021/12/02 11:22:10;;;;;;;2.65;1.17;;;;;;;;;;4976973;28;20089;-88
2021/12/02 11:24:37;;;;;;;5.10;1.00;;;;;;;;;;4977021;28;20057;-88
2021/12/02 11:27:06;;;;;;;1.52;0.98;;;;;;;;;;4976985;28;20046;-88
2021/12/02 11:29:51;;;;;;;1.17;0.70;;;;;;;;;;4993271;28;20530;-88
2021/12/02 11:32:23;;;;;;;2.45;0.77;;;;;;;;;;4993044;28;20053;-88
2021/12/02 11:34:58;;;;;;;2.50;1.23;;;;;;;;;;4976945;28;20053;-88
2021/12/02 11:37:25;;;;;;;0.73;0.60;;;;;;;;;;4976858;28;20054;-89
2021/12/02 11:39:51;;;;;;;0.50;0.50;;;;;;;;;;4976849;28;20051;-88
2021/12/02 11:42:18;;;;;;;3.25;0.68;;;;;;;;;;4976573;28;20101;-89
2021/12/02 11:44:45;;;;;;;0.60;0.60;;;;;;;;;;4976957;28;20193;-89
2021/12/02 11:47:11;;;;;;;0.60;0.60;;;;;;;;;;5053839;28;20412;-88
2021/12/02 11:49:37;;;;;;;0.52;0.50;;;;;;;;;;5056471;28;20052;-89
2021/12/02 11:52:04;;;;;;;2.33;0.80;;;;;;;;;;5055975;28;20413;-88
2021/12/02 11:54:32;;;;;;;0.60;0.60;;;;;;;;;;5039648;28;20045;-89
2021/12/02 11:56:58;;;;;;;0.70;0.70;;;;;;;;;;5056265;28;20054;-89
2021/12/02 11:59:24;;;;;;;0.60;0.60;;;;;;;;;;5055752;28;20105;-89
2021/12/02 12:01:55;;;;;;;0.73;0.60;;;;;;;;;;5057926;28;20049;-89
2021/12/02 12:04:21;;;;;;;4.57;1.08;;;;;;;;;;5040037;28;20083;-89
2021/12/02 12:06:53;;;;;;;2.70;0.88;;;;;;;;;;5039827;28;20056;-89
2021/12/02 12:09:21;;;;;;;0.80;0.68;;;;;;;;;;5040517;28;20056;-89
2021/12/02 12:11:48;;;;;;;1.60;0.60;;;;;;;;;;5073242;28;20052;-89
2021/12/02 12:14:19;;;;;;;2.25;0.70;;;;;;;;;;5057232;28;20052;-88
2021/12/02 12:16:49;;;;;;;1.50;0.60;;;;;;;;;;5073097;28;20543;-89
2021/12/02 12:19:15;;;;;;;0.52;0.52;;;;;;;;;;5073862;28;20052;-89
2021/12/02 12:21:44;;;;;;;3.15;0.70;;;;;;;;;;5055912;28;20040;-89
2021/12/02 12:24:14;;;;;;;0.75;0.60;;;;;;;;;;5072466;28;20044;-88
2021/12/02 12:26:43;;;;;;;3.20;0.70;;;;;;;;;;5072988;28;20615;-88
2021/12/02 12:29:09;;;;;;;1.48;0.70;;;;;;;;;;5040098;28;20052;-89
2021/12/02 12:37:31;;;;;;;2.80;0.93;;;;;;;;;;5015182;28;20406;-89
2021/12/02 12:40:06;;;;;;;0.77;0.77;;;;;;;;;;5003177;28;20422;-89
2021/12/02 12:42:32;;;;;;;2.15;0.82;;;;;;;;;;5018933;28;20632;-88
2021/12/02 12:44:59;;;;;;;1.80;0.70;;;;;;;;;;5018410;28;20493;-89
2021/12/02 12:47:48;;;;;;;1.42;1.08;;;;;;;;;;5034937;28;20045;-88
2021/12/02 12:50:23;;;;;;;0.50;0.50;;;;;;;;;;5020344;28;20068;-89
2021/12/02 12:52:53;;;;;;;1.27;0.70;;;;;;;;;;5023087;28;20055;-90
2021/12/02 12:55:20;;;;;;;1.77;0.80;;;;;;;;;;5039024;28;20061;-91
2021/12/02 12:58:07;;;;;;;1.55;0.77;;;2.90;99.90;;;;;;5022520;28;20397;-92
2021/12/02 13:00:47;;;;;;;0.60;0.60;;;;;;;;;;5022070;28;20091;-93
2021/12/02 13:03:20;;;;;;;1.42;0.82;;;;;;;;;;5039230;28;20074;-90
2021/12/02 13:05:50;;;;;;;0.60;0.60;;;;;;;;;;5038964;28;20048;-90
2021/12/02 13:08:37;;;;;;;0.60;0.60;;;;;;;;;;5022773;28;20056;-92
2021/12/02 13:11:11;;;;;;;1.92;0.70;;;;;;;;;;5038286;28;20049;-92
2021/12/02 13:13:37;;;;;;;2.08;1.10;;;;;;;;;;5028583;28;20071;-90
2021/12/02 13:16:16;;;;;;;0.57;0.57;;;;;;;;;;5076357;28;20059;-92
2021/12/02 13:18:57;;;;;;;0.57;0.57;;;;;;;;;;5060735;28;20087;-93
2021/12/02 13:21:30;;;;;;;0.70;0.70;;;;;;;;;;5060676;28;20125;-91
2021/12/02 13:24:17;;;;;;;4.03;1.05;;;;;;;;;;5060343;28;20048;-90
2021/12/02 13:26:43;;;;;;;0.70;0.50;;;;;;;;;;5093750;28;20131;-89
2021/12/02 13:29:20;;;;;;;1.02;0.40;;;;;;;;;;5060267;28;20449;-93
2021/12/02 13:31:48;;;;;;;0.60;0.60;;;;;;;;;;5060523;28;20052;-92
2021/12/02 13:34:15;;;;;;;2.38;0.75;;;;;;;;;;5077737;28;20055;-91
2021/12/02 13:36:47;;;;;;;0.50;0.50;;;;;;;;;;5061486;28;20051;-92
2021/12/02 13:39:16;;;;;;;1.20;0.88;;;;;;;;;;5093763;28;20090;-91
2021/12/02 13:41:51;;;;;;;0.75;0.57;;;;;;;;;;5043328;28;20110;-89
2021/12/02 13:44:22;;;;;;;2.47;1.65;;;;;;;;;;5077375;28;20131;-90
2021/12/02 13:46:50;;;;;;;0.75;0.70;;;;;;;;;;5042887;28;20408;-91
2021/12/02 13:49:24;;;;;;;5.57;0.85;;;;;;;;;;5042224;28;20051;-88
2021/12/02 13:54:44;;;;;;;4.43;0.93;;;;;;;;;;5057881;28;20105;-88
2021/12/02 13:57:42;;;;;;;1.70;0.57;;;3.40;99.90;;;;;;5042039;28;20489;-89
2021/12/02 14:00:15;;;;;;;2.55;0.60;;;;;;;;;;5058650;28;20060;-88
2021/12/02 14:02:41;;;;;;;0.70;0.70;;;;;;;;;;5040904;28;20056;-88
2021/12/02 14:05:11;;;;;;;1.75;0.75;;;;;;;;;;5074676;28;20424;-88
2021/12/02 14:07:38;;;;;;;1.15;0.50;;;;;;;;;;5041379;28;20053;-88
2021/12/02 14:10:07;;;;;;;2.58;1.02;;;;;;;;;;5041754;28;20125;-88
2021/12/02 14:12:38;;;;;;;2.85;0.70;;;;;;;;;;5041166;28;20404;-88
2021/12/02 14:15:04;;;;;;;1.40;1.17;;;;;;;;;;5074605;28;20057;-88
2021/12/02 14:17:31;;;;;;;0.68;0.57;;;;;;;;;;5074404;28;20060;-87
2021/12/02 14:20:03;;;;;;;0.50;0.50;;;;;;;;;;5041446;28;20040;-88
2021/12/02 14:22:30;;;;;;;0.57;0.50;;;;;;;;;;5073794;28;20053;-91
2021/12/02 14:24:56;;;;;;;0.80;0.50;;;;;;;;;;5075792;28;20048;-90
2021/12/02 14:27:22;;;;;;;0.75;0.50;;;;;;;;;;5041481;28;20060;-91
2021/12/02 14:29:48;;;;;;;2.42;0.95;;;;;;;;;;5041860;28;20122;-92
2021/12/02 14:32:14;;;;;;;0.60;0.60;;;;;;;;;;5074486;28;20057;-91
2021/12/02 14:34:40;;;;;;;1.27;0.68;;;;;;;;;;5074716;28;20047;-91
2021/12/02 14:37:12;;;;;;;0.60;0.60;;;;;;;;;;5074000;28;20059;-92
2021/12/02 14:39:39;;;;;;;1.02;0.60;;;;;;;;;;5043462;28;20055;-88
2021/12/02 14:42:05;;;;;;;3.33;0.60;;;;;;;;;;5077414;28;20052;-88
2021/12/02 14:44:36;;;;;;;0.50;0.50;;;;;;;;;;5060408;28;20496;-88
2021/12/02 14:47:04;;;;;;;1.70;0.90;;;;;;;;;;5093731;28;20055;-88
2021/12/02 14:49:35;;;;;;;4.80;1.60;;;;;;;;;;5061114;28;20052;-88
2021/12/02 14:52:05;;;;;;;2.08;1.88;;;;;;;;;;5060427;28;20113;-88
2021/12/02 14:54:37;;;;;;;6.57;1.20;;;;;;;;;;5094315;28;20055;-89
2021/12/02 14:57:05;;;;;;;1.80;1.25;;;;;;;;;;5059879;28;20105;-89
2021/12/02 14:59:35;;;;;;;1.60;0.95;;;;;;;;;;5094457;28;20135;-88
2021/12/02 15:02:28;;;;;;;5.40;1.10;;;3.20;99.90;;;;;;5060300;28;20048;-89
2021/12/02 15:04:55;;;;;;;6.43;1.20;;;;;;;;;;5060608;28;20044;-88
2021/12/02 15:07:35;;;;;;;1.50;0.98;;;;;;;;;;5059901;28;20079;-88
2021/12/02 15:10:04;;;;;;;1.85;1.00;;;;;;;;;;5094057;28;20044;-88